createdAt,value
2022-11-07T00:02:24.478Z,8.10
2022-11-07T00:05:33.033Z,8.10
2022-11-07T00:08:40.859Z,8.20
2022-11-07T00:11:49.213Z,8.20
2022-11-07T00:14:57.062Z,8.20
2022-11-07T00:18:04.957Z,8.20
2022-11-07T00:21:14.441Z,8.20
2022-11-07T00:24:22.871Z,8.20
2022-11-07T00:27:33.824Z,8.20
2022-11-07T00:30:42.074Z,8.20
2022-11-07T00:33:50.641Z,8.30
2022-11-07T00:36:58.494Z,8.30
2022-11-07T00:40:08.000Z,8.30
2022-11-07T00:43:16.356Z,8.30
2022-11-07T00:46:25.009Z,8.34
2022-11-07T00:49:32.818Z,8.40
2022-11-07T00:52:40.825Z,8.40
2022-11-07T00:55:49.078Z,8.40
2022-11-07T00:59:01.017Z,8.40
2022-11-07T01:02:12.671Z,8.40
2022-11-07T01:05:21.936Z,8.38
2022-11-07T01:08:30.053Z,8.32
2022-11-07T01:11:38.954Z,8.32
2022-11-07T01:14:46.757Z,8.32
2022-11-07T01:17:55.551Z,8.30
2022-11-07T01:21:10.895Z,8.30
2022-11-07T01:24:21.566Z,8.32
2022-11-07T01:27:37.981Z,8.30
2022-11-07T01:30:47.389Z,8.32
2022-11-07T01:34:04.922Z,8.36
2022-11-07T01:37:13.096Z,8.36
2022-11-07T01:40:21.162Z,8.30
2022-11-07T01:43:48.378Z,8.30
2022-11-07T01:47:00.432Z,8.30
2022-11-07T01:50:11.536Z,8.30
2022-11-07T01:53:19.328Z,8.30
2022-11-07T01:56:33.162Z,8.30
2022-11-07T01:59:42.741Z,8.30
2022-11-07T02:02:57.350Z,8.30
2022-11-07T02:06:10.728Z,8.30
2022-11-07T02:09:19.241Z,8.30
2022-11-07T02:12:37.671Z,8.30
2022-11-07T02:15:45.589Z,8.30
2022-11-07T02:19:01.911Z,8.34
2022-11-07T02:22:27.298Z,8.40
2022-11-07T02:25:35.379Z,8.40
2022-11-07T02:28:46.071Z,8.40
2022-11-07T02:32:05.711Z,8.40
2022-11-07T02:35:36.524Z,8.40
2022-11-07T02:38:53.292Z,8.40
2022-11-07T02:42:03.901Z,8.40
2022-11-07T02:45:35.126Z,8.40
2022-11-07T02:48:50.634Z,8.40
2022-11-07T02:52:06.772Z,8.40
2022-11-07T02:55:16.802Z,8.50
2022-11-07T02:58:24.807Z,8.50
2022-11-07T03:01:32.713Z,8.54
2022-11-07T03:04:49.291Z,8.60
2022-11-07T03:07:57.157Z,8.60
2022-11-07T03:11:27.934Z,8.60
2022-11-07T03:14:35.615Z,8.60
2022-11-07T03:17:51.808Z,8.60
2022-11-07T03:20:59.816Z,8.60
2022-11-07T03:24:16.340Z,8.60
2022-11-07T03:27:24.064Z,8.60
2022-11-07T03:30:48.097Z,8.60
2022-11-07T03:33:56.795Z,8.66
2022-11-07T03:37:20.945Z,8.70
2022-11-07T03:40:29.261Z,8.70
2022-11-07T03:43:53.765Z,8.70
2022-11-07T03:47:01.817Z,8.70
2022-11-07T03:50:22.175Z,8.60
2022-11-07T03:53:29.906Z,8.60
2022-11-07T03:56:45.796Z,8.60
2022-11-07T03:59:53.892Z,8.60
2022-11-07T04:03:09.875Z,8.50
2022-11-07T04:06:17.970Z,8.50
2022-11-07T04:09:29.292Z,8.40
2022-11-07T04:12:54.771Z,8.40
2022-11-07T04:16:31.688Z,8.40
2022-11-07T04:19:39.452Z,8.32
2022-11-07T04:22:55.788Z,8.32
2022-11-07T04:26:21.516Z,8.40
2022-11-07T04:29:45.776Z,8.36
2022-11-07T04:32:56.572Z,8.32
2022-11-07T04:36:21.388Z,8.40
2022-11-07T04:39:29.659Z,8.40
2022-11-07T04:42:46.722Z,8.40
2022-11-07T04:45:55.249Z,8.40
2022-11-07T04:49:11.342Z,8.46
2022-11-07T04:52:19.016Z,8.46
2022-11-07T04:55:34.953Z,8.48
2022-11-07T04:58:42.701Z,8.48
2022-11-07T05:01:50.692Z,8.48
2022-11-07T05:04:58.614Z,8.40
2022-11-07T05:08:06.757Z,8.40
2022-11-07T05:11:14.639Z,8.40
2022-11-07T05:14:39.300Z,8.40
2022-11-07T05:17:47.896Z,8.40
2022-11-07T05:21:03.698Z,8.38
2022-11-07T05:24:11.943Z,8.32
2022-11-07T05:27:25.025Z,8.30
2022-11-07T05:30:32.833Z,8.30
2022-11-07T05:33:49.306Z,8.28
2022-11-07T05:36:57.017Z,8.20
2022-11-07T05:40:04.835Z,8.06
2022-11-07T05:43:17.040Z,8.00
2022-11-07T05:46:24.912Z,7.94
2022-11-07T05:49:32.904Z,7.90
2022-11-07T05:52:41.368Z,7.90
2022-11-07T05:55:49.457Z,7.90
2022-11-07T05:59:05.187Z,7.90
2022-11-07T06:02:13.352Z,8.00
2022-11-07T06:05:24.216Z,8.00
2022-11-07T06:08:32.449Z,8.00
2022-11-07T06:11:40.339Z,8.00
2022-11-07T06:14:47.950Z,8.00
2022-11-07T06:18:13.442Z,8.00
2022-11-07T06:21:21.293Z,8.00
2022-11-07T06:24:37.245Z,8.00
2022-11-07T06:27:44.940Z,8.00
2022-11-07T06:30:53.248Z,8.00
2022-11-07T06:34:01.010Z,8.04
2022-11-07T06:37:16.902Z,8.10
2022-11-07T06:40:24.673Z,8.10
2022-11-07T06:43:33.840Z,8.20
2022-11-07T06:46:41.961Z,8.30
2022-11-07T06:49:49.630Z,8.34
2022-11-07T06:52:57.639Z,8.40
2022-11-07T06:56:27.169Z,8.50
2022-11-07T06:59:35.154Z,8.60
2022-11-07T07:02:57.952Z,8.62
2022-11-07T07:06:09.407Z,8.70
2022-11-07T07:09:25.512Z,8.80
2022-11-07T07:12:33.234Z,8.88
2022-11-07T07:15:50.951Z,8.90
2022-11-07T07:18:59.516Z,9.00
2022-11-07T07:22:07.287Z,9.02
2022-11-07T07:25:15.441Z,9.10
2022-11-07T07:28:23.239Z,9.20
2022-11-07T07:31:34.631Z,9.30
2022-11-07T07:34:58.697Z,9.40
2022-11-07T07:38:06.663Z,9.50
2022-11-07T07:41:14.543Z,9.60
2022-11-07T07:44:22.330Z,9.70
2022-11-07T07:47:38.729Z,9.70
2022-11-07T07:50:49.048Z,9.80
2022-11-07T07:54:05.094Z,9.80
2022-11-07T07:57:13.095Z,9.86
2022-11-07T08:00:30.547Z,9.90
2022-11-07T08:03:59.793Z,10.00
2022-11-07T08:07:15.407Z,10.00
2022-11-07T08:14:08.102Z,10.10
2022-11-07T08:17:16.099Z,10.18
2022-11-07T08:20:28.114Z,10.20
2022-11-07T08:23:35.928Z,10.20
2022-11-07T08:27:00.227Z,10.20
2022-11-07T08:30:16.643Z,10.20
2022-11-07T08:33:33.879Z,10.20
2022-11-07T08:36:42.113Z,10.26
2022-11-07T08:40:06.282Z,10.30
2022-11-07T08:43:17.335Z,10.30
2022-11-07T08:46:42.000Z,10.30
2022-11-07T08:49:50.107Z,10.30
2022-11-07T08:53:07.538Z,10.30
2022-11-07T08:56:15.362Z,10.40
2022-11-07T08:59:39.684Z,10.40
2022-11-07T09:03:23.947Z,10.40
2022-11-07T09:06:23.507Z,10.40
2022-11-07T09:09:31.317Z,10.40
2022-11-07T09:12:57.740Z,10.40
2022-11-07T09:16:07.596Z,10.40
2022-11-07T09:19:22.100Z,10.40
2022-11-07T09:22:29.959Z,10.40
2022-11-07T09:25:45.748Z,10.40
2022-11-07T09:28:57.317Z,10.40
2022-11-07T09:32:38.643Z,10.40
2022-11-07T09:35:45.469Z,10.40
2022-11-07T09:39:01.754Z,10.48
2022-11-07T09:42:24.179Z,10.50
2022-11-07T09:45:46.680Z,10.50
2022-11-07T09:49:04.184Z,10.50
2022-11-07T09:52:29.860Z,10.50
2022-11-07T09:55:44.720Z,10.50
2022-11-07T09:58:55.830Z,10.50
2022-11-07T10:02:04.613Z,10.50
2022-11-07T10:05:25.444Z,10.50
2022-11-07T10:08:44.428Z,10.50
2022-11-07T10:12:24.565Z,10.50
2022-11-07T10:15:44.065Z,10.50
2022-11-07T10:19:16.466Z,10.50
2022-11-07T10:22:52.020Z,10.46
2022-11-07T10:26:14.358Z,10.40
2022-11-07T10:29:26.614Z,10.40
2022-11-07T10:33:01.663Z,10.40
2022-11-07T10:36:20.557Z,10.40
2022-11-07T10:39:37.291Z,10.40
2022-11-07T10:42:48.069Z,10.40
2022-11-07T10:46:05.982Z,10.40
2022-11-07T10:49:25.500Z,10.40
2022-11-07T10:52:42.958Z,10.40
2022-11-07T10:55:53.161Z,10.40
2022-11-07T10:59:36.181Z,10.40
2022-11-07T11:02:51.058Z,10.40
2022-11-07T11:06:09.473Z,10.40
2022-11-07T11:09:23.590Z,10.40
2022-11-07T11:12:46.111Z,10.40
2022-11-07T11:15:55.462Z,10.40
2022-11-07T11:19:05.479Z,10.40
2022-11-07T11:22:22.916Z,10.30
2022-11-07T11:25:39.057Z,10.30
2022-11-07T11:28:51.467Z,10.30
2022-11-07T11:32:24.956Z,10.32
2022-11-07T11:35:43.179Z,10.36
2022-11-07T11:39:01.541Z,10.40
2022-11-07T11:42:15.764Z,10.40
2022-11-07T11:45:52.233Z,10.40
2022-11-07T11:49:07.399Z,10.50
2022-11-07T11:52:21.390Z,10.48
2022-11-07T11:55:39.914Z,10.50
2022-11-07T11:59:27.460Z,10.50
2022-11-07T12:03:05.190Z,10.54
2022-11-07T12:06:28.939Z,10.60
2022-11-07T12:09:46.379Z,10.70
2022-11-07T12:13:10.797Z,10.80
2022-11-07T12:16:34.750Z,10.86
2022-11-07T12:20:06.286Z,10.90
2022-11-07T12:23:35.743Z,11.04
2022-11-07T12:27:11.480Z,11.10
2022-11-07T12:30:34.146Z,11.24
2022-11-07T12:34:00.485Z,11.40
2022-11-07T12:37:34.193Z,11.60
2022-11-07T12:41:03.872Z,11.90
2022-11-07T12:44:30.756Z,12.20
2022-11-07T12:48:17.642Z,12.50
2022-11-07T12:51:43.709Z,12.90
2022-11-07T12:55:05.789Z,13.20
2022-11-07T12:58:23.525Z,13.60
2022-11-07T13:01:58.283Z,13.60
2022-11-07T13:05:23.954Z,13.50
2022-11-07T13:08:47.978Z,13.30
2022-11-07T13:12:06.473Z,13.18
2022-11-07T13:15:47.472Z,13.66
2022-11-07T13:19:09.192Z,14.10
2022-11-07T13:22:44.007Z,13.76
2022-11-07T13:26:14.895Z,13.72
2022-11-07T13:29:40.801Z,14.64
2022-11-07T13:32:51.206Z,15.36
2022-11-07T13:36:20.388Z,15.80
2022-11-07T13:39:30.293Z,16.14
2022-11-07T13:42:54.671Z,16.30
2022-11-07T13:46:07.977Z,16.26
2022-11-07T13:49:43.004Z,16.30
2022-11-07T13:53:02.877Z,16.20
2022-11-07T13:56:42.411Z,16.10
2022-11-07T13:59:56.989Z,16.00
2022-11-07T14:03:37.438Z,15.80
2022-11-07T14:06:46.257Z,15.70
2022-11-07T14:10:00.288Z,15.70
2022-11-07T14:13:13.737Z,15.60
2022-11-07T14:16:35.569Z,15.50
2022-11-07T14:19:43.734Z,15.20
2022-11-07T14:23:04.337Z,14.84
2022-11-07T14:26:23.740Z,14.46
2022-11-07T14:29:31.749Z,14.10
2022-11-07T14:32:40.343Z,13.70
2022-11-07T14:36:04.791Z,13.40
2022-11-07T14:39:19.069Z,13.10
2022-11-07T14:42:35.273Z,12.82
2022-11-07T14:49:35.379Z,12.26
2022-11-07T14:52:48.870Z,12.00
2022-11-07T14:56:12.689Z,11.80
2022-11-07T14:59:24.104Z,11.60
2022-11-07T15:02:40.353Z,11.50
2022-11-07T15:05:51.188Z,11.40
2022-11-07T15:09:14.432Z,11.22
2022-11-07T15:12:25.527Z,11.00
2022-11-07T15:15:42.137Z,10.86
2022-11-07T15:18:59.178Z,10.70
2022-11-07T15:22:38.199Z,10.60
2022-11-07T15:25:56.030Z,10.50
2022-11-07T15:29:23.053Z,10.44
2022-11-07T15:32:36.826Z,10.40
2022-11-07T15:36:06.023Z,10.30
2022-11-07T15:39:17.076Z,10.20
2022-11-07T15:42:40.946Z,10.10
2022-11-07T15:45:52.469Z,10.06
2022-11-07T15:49:21.032Z,9.92
2022-11-07T15:52:29.258Z,9.90
2022-11-07T15:55:45.139Z,9.80
2022-11-07T15:58:54.889Z,9.70
2022-11-07T16:02:26.993Z,9.60
2022-11-07T16:05:35.630Z,9.50
2022-11-07T16:09:00.485Z,9.40
2022-11-07T16:12:11.084Z,9.30
2022-11-07T16:15:34.163Z,9.20
2022-11-07T16:18:54.152Z,9.10
2022-11-07T16:22:10.315Z,9.00
2022-11-07T16:25:24.985Z,8.90
2022-11-07T16:28:40.964Z,8.90
2022-11-07T16:31:48.966Z,8.80
2022-11-07T16:35:04.967Z,8.80
2022-11-07T16:38:19.080Z,8.70
2022-11-07T16:41:27.373Z,8.62
2022-11-07T16:44:35.202Z,8.60
2022-11-07T16:47:59.632Z,8.50
2022-11-07T16:51:07.933Z,8.50
2022-11-07T16:54:24.410Z,8.40
2022-11-07T16:57:33.409Z,8.36
2022-11-07T17:00:41.513Z,8.30
2022-11-07T17:03:49.321Z,8.30
2022-11-07T17:07:00.069Z,8.20
2022-11-07T17:10:09.734Z,8.20
2022-11-07T17:13:27.970Z,8.20
2022-11-07T17:16:37.036Z,8.10
2022-11-07T17:19:45.121Z,8.00
2022-11-07T17:22:53.241Z,8.00
2022-11-07T17:26:02.568Z,7.90
2022-11-07T17:29:14.470Z,7.90
2022-11-07T17:32:22.892Z,7.86
2022-11-07T17:35:32.605Z,7.80
2022-11-07T17:38:40.827Z,7.72
2022-11-07T17:41:51.291Z,7.70
2022-11-07T17:45:00.317Z,7.60
2022-11-07T17:48:10.077Z,7.60
2022-11-07T17:51:19.371Z,7.56
2022-11-07T17:54:29.706Z,7.50
2022-11-07T17:57:38.566Z,7.50
2022-11-07T18:00:46.351Z,7.42
2022-11-07T18:03:56.390Z,7.42
2022-11-07T18:07:13.299Z,7.40
2022-11-07T18:10:21.819Z,7.40
2022-11-07T18:13:38.293Z,7.40
2022-11-07T18:16:45.996Z,7.40
2022-11-07T18:20:01.904Z,7.40
2022-11-07T18:23:11.242Z,7.30
2022-11-07T18:26:25.391Z,7.26
2022-11-07T18:29:42.540Z,7.22
2022-11-07T18:32:59.224Z,7.20
2022-11-07T18:36:19.312Z,7.22
2022-11-07T18:39:35.830Z,7.20
2022-11-07T18:42:47.318Z,7.20
2022-11-07T18:45:56.806Z,7.20
2022-11-07T18:49:13.550Z,7.20
2022-11-07T18:52:21.691Z,7.20
2022-11-07T18:55:29.536Z,7.20
2022-11-07T18:58:39.463Z,7.20
2022-11-07T19:01:45.696Z,7.20
2022-11-07T19:04:54.029Z,7.14
2022-11-07T19:08:01.954Z,7.10
2022-11-07T19:11:20.583Z,7.10
2022-11-07T19:14:31.863Z,7.10
2022-11-07T19:17:47.851Z,7.00
2022-11-07T19:20:57.245Z,7.00
2022-11-07T19:24:05.531Z,6.90
2022-11-07T19:27:13.816Z,6.90
2022-11-07T19:30:22.003Z,6.90
2022-11-07T19:33:29.728Z,6.82
2022-11-07T19:36:39.094Z,6.80
2022-11-07T19:39:47.279Z,6.70
2022-11-07T19:42:56.444Z,6.70
2022-11-07T19:46:09.224Z,6.68
2022-11-07T19:49:17.691Z,6.64
2022-11-07T19:52:25.791Z,6.60
2022-11-07T19:55:33.847Z,6.60
2022-11-07T19:58:42.611Z,6.60
2022-11-07T20:02:18.031Z,6.54
2022-11-07T20:05:25.238Z,6.50
2022-11-07T20:08:33.073Z,6.50
2022-11-07T20:11:50.596Z,6.50
2022-11-07T20:14:58.375Z,6.40
2022-11-07T20:18:07.129Z,6.40
2022-11-07T20:21:19.102Z,6.40
2022-11-07T20:24:30.198Z,6.40
2022-11-07T20:27:46.497Z,6.40
2022-11-07T20:30:56.137Z,6.34
2022-11-07T20:34:07.004Z,6.30
2022-11-07T20:37:29.016Z,6.30
2022-11-07T20:40:38.119Z,6.30
2022-11-07T20:43:46.401Z,6.32
2022-11-07T20:47:02.633Z,6.34
2022-11-07T20:50:11.930Z,6.40
2022-11-07T20:53:27.893Z,6.40
2022-11-07T20:56:36.241Z,6.40
2022-11-07T20:59:45.581Z,6.40
2022-11-07T21:02:55.058Z,6.40
2022-11-07T21:06:12.444Z,6.38
2022-11-07T21:09:22.158Z,6.30
2022-11-07T21:12:30.204Z,6.34
2022-11-07T21:15:38.487Z,6.40
2022-11-07T21:18:46.535Z,6.40
2022-11-07T21:21:54.352Z,6.40
2022-11-07T21:25:02.236Z,6.40
2022-11-07T21:28:20.820Z,6.40
2022-11-07T21:31:31.873Z,6.42
2022-11-07T21:34:48.241Z,6.50
2022-11-07T21:37:56.691Z,6.50
2022-11-07T21:41:09.559Z,6.50
2022-11-07T21:44:17.317Z,6.60
2022-11-07T21:47:25.319Z,6.60
2022-11-07T21:50:45.229Z,6.62
2022-11-07T21:53:55.337Z,6.70
2022-11-07T21:57:03.273Z,6.70
2022-11-07T22:00:14.479Z,6.70
2022-11-07T22:03:37.604Z,6.70
2022-11-07T22:06:51.981Z,6.78
2022-11-07T22:09:58.305Z,6.80
2022-11-07T22:13:07.662Z,6.80
2022-11-07T22:16:18.930Z,6.80
2022-11-07T22:19:28.517Z,6.80
2022-11-07T22:22:37.351Z,6.80
2022-11-07T22:25:45.179Z,6.80
2022-11-07T22:28:54.487Z,6.80
2022-11-07T22:32:12.012Z,6.80
2022-11-07T22:35:28.146Z,6.80
2022-11-07T22:38:38.607Z,6.80
2022-11-07T22:41:46.433Z,6.80
2022-11-07T22:45:02.148Z,6.80
2022-11-07T22:48:18.116Z,6.80
2022-11-07T22:51:37.224Z,6.80
2022-11-07T22:54:54.081Z,6.78
2022-11-07T22:58:02.665Z,6.70
2022-11-07T23:01:18.772Z,6.70
2022-11-07T23:04:32.492Z,6.70
2022-11-07T23:07:41.166Z,6.70
2022-11-07T23:11:13.747Z,6.70
2022-11-07T23:14:27.316Z,6.70
2022-11-07T23:17:43.186Z,6.70
2022-11-07T23:21:12.087Z,6.70
2022-11-07T23:24:20.949Z,6.76
2022-11-07T23:27:36.969Z,6.80
2022-11-07T23:30:44.673Z,6.80
2022-11-07T23:34:00.622Z,6.80
2022-11-07T23:37:13.959Z,6.80
2022-11-07T23:40:21.923Z,6.80
2022-11-07T23:43:29.647Z,6.80
2022-11-07T23:46:55.210Z,6.80
2022-11-07T23:50:28.496Z,6.80
2022-11-07T23:54:01.922Z,6.80
2022-11-07T23:57:17.734Z,6.80
